Augusta/Daniel Field, Georgia
Current Conditions -  °F | °C
As of 12:04 PM on Saturday 20 Dec 2014 (Local Time) from KDNL Reporting Station
Haze Haze  
Wind Chill: 11°   Ceiling: 500
Heat Index: 11°   Visibility: 4mi
Dew Point: 10°   Wind: 5mph
Humidity: 93%   Direction: 360°N
Pressure: 30.21"   Gusts: NA
Location:  33.47°N, 82.03°W
Report Text: KDNL 201704Z AUTO 36004KT 4SM BR OVC005 11/10 A3021 RMK AO2 RAE03 P0000 T01110100
Loading
Personal Weather Stations






























Interactive Weather Map New forecast layout! Learn more

10-Day Weather Forecast

Advertisements
Track Severe Weather on mobile